Taurus — 2CPB4 — position and weather

sailwx.info

Track history (hours):
 
Tides and Currents Weather Stations Pressure Air Temp Water Temp Dewpoint Dewpoint Depression Visibility Wind Speed Wind Dir Waves Ship Positions

Taurus

Last reported at 2014-Aug-26 22:04 UTC. Time now 2014-Sep-02 01:55 UTC.
Position N 37°33' E 123°14'.

Length 292 m; draft 8.8 m.

Type: Cargo ship. MMSI: 235074621.

Date/timePositionNaut miles runAvg speedWind from/ knotsBaromVisibWave heightAir tempDewpointWater temp
2014-Aug-26 22:04N 37°33' E 123°14'710.2
2014-Aug-26 21:20N 37°37' E 123°06'1111.0
2014-Aug-26 20:19N 37°43' E 122°54'1011.7
2014-Aug-26 19:28N 37°48' E 122°44'1411.9
2014-Aug-26 18:19N 37°54' E 122°28'1112.2
2014-Aug-26 17:27N 37°58' E 122°16'1111.9
2014-Aug-26 16:33N 38°02' E 122°03'1111.3
2014-Aug-26 15:34N 38°05' E 121°50'1111.0
2014-Aug-26 14:33N 38°11' E 121°38'1111.4
2014-Aug-26 13:34N 38°18' E 121°26'1211.6
2014-Aug-26 12:33N 38°24' E 121°13'1111.5
2014-Aug-26 11:34N 38°30' E 121°01'1211.9
2014-Aug-26 10:33N 38°34' E 120°47'1211.8
2014-Aug-26 09:33N 38°38' E 120°32'1111.0
2014-Aug-26 08:33N 38°41' E 120°18'1010.3
2014-Aug-26 07:33N 38°45' E 120°06'1010.0
2014-Aug-26 06:33N 38°47' E 119°54'10 9.8
2014-Aug-26 05:33N 38°49' E 119°42'54960.6
2014-Aug-25 20:29N 29°58' E 122°31'10 2.9
2014-Aug-25 17:06N 29°58' E 122°20'3 6.2
2014-Aug-25 16:33N 29°57' E 122°16'0 0.1
2014-Aug-25 09:14N 29°57' E 122°16'1 1.0
2014-Aug-25 08:07N 29°56' E 122°16'1 0.3
2014-Aug-25 04:34N 29°57' E 122°16'5 4.9
2014-Aug-25 03:31N 29°60' E 122°21'94 3.1
2014-Aug-23 21:20N 30°56' E 123°48'  
2014-Aug-21 01:08N 30°10' E 122°32'7 8.5
2014-Aug-21 00:20N 30°06' E 122°26'9 9.0
2014-Aug-20 23:18N 29°58' E 122°20'3 4.7
2014-Aug-20 22:33N 29°57' E 122°16'529122.2
2014-Aug-20 18:13N 38°40' E 120°34'7 8.8
2014-Aug-20 17:26N 38°38' E 120°43'8 8.8
2014-Aug-20 16:29N 38°37' E 120°53'9 9.0
2014-Aug-20 15:32N 38°33' E 121°03'11 9.4
2014-Aug-20 14:20N 38°28' E 121°16'7 9.2
2014-Aug-20 13:33N 38°25' E 121°25'510512.0
2014-Aug-20 12:34N 29°57' E 122°15'0 0.0
2014-Aug-20 11:33N 29°57' E 122°15'494492.5
2014-Aug-20 10:33N 38°11' E 121°56'1010.0
2014-Aug-20 09:32N 38°06' E 122°08'488469.2
2014-Aug-20 08:30N 29°58' E 122°14'478505.8
2014-Aug-20 07:33N 37°56' E 122°30'1110.6
2014-Aug-20 06:33N 37°50' E 122°41'  
Track history (hours):
 
Tides and Currents Weather Stations Pressure Air Temp Water Temp Dewpoint Dewpoint Depression Visibility Wind Speed Wind Dir Waves Ship Positions

Taurus

Last reported at 2014-Aug-26 22:04 UTC. Time now 2014-Sep-02 01:55 UTC.
Position N 37°33' E 123°14'.

Length 292 m; draft 8.8 m.

Type: Cargo ship. MMSI: 235074621.

Date/timePositionNaut miles runAvg speedWind from/ knotsBaromVisibWave heightAir tempDewpointWater temp
2014-Aug-26 22:04N 37°33' E 123°14'710.2
2014-Aug-26 21:20N 37°37' E 123°06'1111.0
2014-Aug-26 20:19N 37°43' E 122°54'1011.7
2014-Aug-26 19:28N 37°48' E 122°44'1411.9
2014-Aug-26 18:19N 37°54' E 122°28'1112.2
2014-Aug-26 17:27N 37°58' E 122°16'1111.9
2014-Aug-26 16:33N 38°02' E 122°03'1111.3
2014-Aug-26 15:34N 38°05' E 121°50'1111.0
2014-Aug-26 14:33N 38°11' E 121°38'1111.4
2014-Aug-26 13:34N 38°18' E 121°26'1211.6
2014-Aug-26 12:33N 38°24' E 121°13'1111.5
2014-Aug-26 11:34N 38°30' E 121°01'1211.9
2014-Aug-26 10:33N 38°34' E 120°47'1211.8
2014-Aug-26 09:33N 38°38' E 120°32'1111.0
2014-Aug-26 08:33N 38°41' E 120°18'1010.3
2014-Aug-26 07:33N 38°45' E 120°06'1010.0
2014-Aug-26 06:33N 38°47' E 119°54'10 9.8
2014-Aug-26 05:33N 38°49' E 119°42'54960.6
2014-Aug-25 20:29N 29°58' E 122°31'10 2.9
2014-Aug-25 17:06N 29°58' E 122°20'3 6.2
2014-Aug-25 16:33N 29°57' E 122°16'0 0.1
2014-Aug-25 09:14N 29°57' E 122°16'1 1.0
2014-Aug-25 08:07N 29°56' E 122°16'1 0.3
2014-Aug-25 04:34N 29°57' E 122°16'5 4.9
2014-Aug-25 03:31N 29°60' E 122°21'94 3.1
2014-Aug-23 21:20N 30°56' E 123°48'  
2014-Aug-21 01:08N 30°10' E 122°32'7 8.5
2014-Aug-21 00:20N 30°06' E 122°26'9 9.0
2014-Aug-20 23:18N 29°58' E 122°20'3 4.7
2014-Aug-20 22:33N 29°57' E 122°16'529122.2
2014-Aug-20 18:13N 38°40' E 120°34'7 8.8
2014-Aug-20 17:26N 38°38' E 120°43'8 8.8
2014-Aug-20 16:29N 38°37' E 120°53'9 9.0
2014-Aug-20 15:32N 38°33' E 121°03'11 9.4
2014-Aug-20 14:20N 38°28' E 121°16'7 9.2
2014-Aug-20 13:33N 38°25' E 121°25'510512.0
2014-Aug-20 12:34N 29°57' E 122°15'0 0.0
2014-Aug-20 11:33N 29°57' E 122°15'494492.5
2014-Aug-20 10:33N 38°11' E 121°56'1010.0
2014-Aug-20 09:32N 38°06' E 122°08'488469.2
2014-Aug-20 08:30N 29°58' E 122°14'478505.8
2014-Aug-20 07:33N 37°56' E 122°30'1110.6
2014-Aug-20 06:33N 37°50' E 122°41'  

Dump ship's entire track history